createdAt,value
2022-11-06T00:01:48.802Z,36.22
2022-11-06T00:06:50.439Z,38.03
2022-11-06T00:11:52.958Z,39.38
2022-11-06T00:16:51.646Z,34.60
2022-11-06T00:21:50.517Z,33.72
2022-11-06T00:26:54.377Z,43.95
2022-11-06T00:31:53.569Z,40.85
2022-11-06T00:36:52.368Z,37.50
2022-11-06T00:41:52.526Z,40.75
2022-11-06T00:46:51.350Z,46.08
2022-11-06T00:51:50.115Z,42.38
2022-11-06T00:56:48.889Z,38.40
2022-11-06T01:01:49.155Z,39.03
2022-11-06T01:06:50.810Z,37.50
2022-11-06T01:12:12.405Z,33.15
2022-11-06T01:17:13.386Z,38.95
2022-11-06T01:22:12.169Z,39.42
2022-11-06T01:27:27.492Z,38.38
2022-11-06T01:32:27.955Z,41.42
2022-11-06T01:37:26.795Z,40.63
2022-11-06T01:42:25.692Z,40.88
2022-11-06T01:47:27.835Z,43.53
2022-11-06T01:52:29.339Z,46.00
2022-11-06T01:57:28.244Z,50.58
2022-11-06T02:02:28.767Z,46.20
2022-11-06T02:07:28.018Z,46.00
2022-11-06T02:12:40.822Z,45.78
2022-11-06T02:17:58.334Z,49.65
2022-11-06T02:23:32.937Z,52.92
2022-11-06T02:28:36.738Z,49.45
2022-11-06T02:33:39.604Z,48.58
2022-11-06T02:38:42.048Z,52.60
2022-11-06T02:43:46.598Z,53.25
2022-11-06T02:48:50.879Z,52.08
2022-11-06T02:53:50.555Z,50.20
2022-11-06T02:58:54.813Z,55.70
2022-11-06T03:03:57.104Z,48.42
2022-11-06T03:09:00.269Z,50.13
2022-11-06T03:14:10.547Z,49.53
2022-11-06T03:19:19.908Z,50.42
2022-11-06T03:24:31.190Z,52.90
2022-11-06T03:29:40.653Z,48.58
2022-11-06T03:34:44.168Z,50.88
2022-11-06T03:39:49.634Z,48.25
2022-11-06T03:44:53.631Z,51.97
2022-11-06T03:49:59.060Z,49.70
2022-11-06T03:55:01.686Z,48.90
2022-11-06T04:00:05.888Z,52.70
2022-11-06T04:05:15.953Z,56.38
2022-11-06T04:10:32.558Z,53.75
2022-11-06T04:15:37.874Z,54.15
2022-11-06T04:21:00.159Z,56.22
2022-11-06T04:26:23.404Z,54.40
2022-11-06T04:36:41.060Z,57.97
2022-11-06T04:41:46.635Z,56.97
2022-11-06T04:46:52.329Z,58.53
2022-11-06T04:51:51.293Z,58.40
2022-11-06T04:56:51.446Z,56.22
2022-11-06T05:01:52.285Z,53.70
2022-11-06T05:06:51.128Z,50.72
2022-11-06T05:11:50.076Z,53.03
2022-11-06T05:16:48.878Z,53.60
2022-11-06T05:22:06.420Z,48.63
2022-11-06T05:27:05.479Z,51.33
2022-11-06T05:32:16.050Z,55.17
2022-11-06T05:37:16.182Z,49.10
2022-11-06T05:42:15.008Z,62.78
2022-11-06T05:47:13.830Z,47.97
2022-11-06T05:52:12.635Z,44.03
2022-11-06T05:57:13.005Z,44.67
2022-11-06T06:02:12.309Z,49.42
2022-11-06T06:07:11.535Z,60.40
2022-11-06T06:12:14.422Z,44.85
2022-11-06T06:17:13.427Z,44.47
2022-11-06T06:22:12.765Z,46.40
2022-11-06T06:27:13.299Z,41.92
2022-11-06T06:32:12.110Z,42.30
2022-11-06T06:37:10.879Z,46.50
2022-11-06T06:42:09.778Z,47.55
2022-11-06T06:47:09.974Z,42.90
2022-11-06T06:52:11.348Z,42.00
2022-11-06T06:57:13.581Z,47.53
2022-11-06T07:02:14.608Z,43.47
2022-11-06T07:07:14.240Z,41.20
2022-11-06T07:12:13.555Z,45.13
2022-11-06T07:17:13.894Z,39.72
2022-11-06T07:22:12.790Z,43.00
2022-11-06T07:27:11.620Z,38.83
2022-11-06T07:32:10.489Z,42.03
2022-11-06T07:37:10.711Z,39.33
2022-11-06T07:42:09.552Z,38.03
2022-11-06T07:47:09.261Z,23.45
2022-11-06T07:52:08.016Z,29.65
2022-11-06T07:57:08.149Z,35.42
2022-11-06T08:02:07.142Z,23.58
2022-11-06T08:07:06.526Z,22.90
2022-11-06T08:12:05.686Z,19.77
2022-11-06T08:17:05.815Z,14.55
2022-11-06T08:22:04.641Z,26.58
2022-11-06T08:27:04.004Z,31.48
2022-11-06T08:32:05.413Z,52.88
2022-11-06T08:37:04.383Z,25.10
2022-11-06T08:42:05.279Z,24.98
2022-11-06T08:47:05.878Z,25.55
2022-11-06T08:52:05.709Z,30.20
2022-11-06T08:57:04.617Z,24.63
2022-11-06T09:02:03.544Z,35.08
2022-11-06T09:07:03.870Z,25.60
2022-11-06T09:12:05.234Z,23.88
2022-11-06T09:17:04.102Z,25.37
2022-11-06T09:22:06.952Z,18.52
2022-11-06T09:27:09.796Z,22.58
2022-11-06T09:32:10.062Z,19.52
2022-11-06T09:37:11.457Z,18.38
2022-11-06T09:42:20.775Z,23.83
2022-11-06T09:47:26.458Z,22.23
2022-11-06T09:52:34.591Z,19.25
2022-11-06T09:57:41.230Z,16.52
2022-11-06T10:02:48.988Z,17.63
2022-11-06T10:07:53.682Z,16.17
2022-11-06T10:13:07.875Z,24.73
2022-11-06T10:18:14.516Z,31.83
2022-11-06T10:23:21.693Z,22.65
2022-11-06T10:28:34.216Z,18.25
2022-11-06T10:33:45.029Z,20.83
2022-11-06T10:38:49.278Z,18.47
2022-11-06T10:43:53.825Z,20.38
2022-11-06T10:48:59.264Z,22.30
2022-11-06T10:54:15.567Z,16.70
2022-11-06T10:59:18.101Z,26.38
2022-11-06T11:04:19.427Z,16.98
2022-11-06T11:09:31.625Z,16.17
2022-11-06T11:14:32.429Z,19.52
2022-11-06T11:19:41.555Z,18.05
2022-11-06T11:25:00.931Z,19.60
2022-11-06T11:29:59.916Z,18.98
2022-11-06T11:34:59.827Z,23.25
2022-11-06T11:40:22.092Z,13.57
2022-11-06T11:45:22.790Z,19.85
2022-11-06T11:50:29.049Z,16.52
2022-11-06T11:55:31.405Z,18.83
2022-11-06T12:00:31.149Z,20.27
2022-11-06T12:05:36.825Z,20.35
2022-11-06T12:10:39.196Z,15.85
2022-11-06T12:15:45.539Z,16.08
2022-11-06T12:20:52.482Z,17.27
2022-11-06T12:26:01.237Z,19.38
2022-11-06T12:31:07.311Z,15.80
2022-11-06T12:36:09.829Z,15.43
2022-11-06T12:41:16.355Z,18.25
2022-11-06T12:46:39.778Z,15.77
2022-11-06T12:51:47.710Z,15.98
2022-11-06T12:56:56.385Z,21.52
2022-11-06T13:02:05.517Z,17.05
2022-11-06T13:07:53.885Z,20.15
2022-11-06T13:13:16.417Z,24.30
2022-11-06T13:18:21.215Z,16.48
2022-11-06T13:23:27.163Z,19.83
2022-11-06T13:28:39.003Z,16.50
2022-11-06T13:33:45.946Z,19.92
2022-11-06T13:38:52.646Z,20.05
2022-11-06T13:43:59.964Z,15.88
2022-11-06T13:49:08.216Z,21.27
2022-11-06T13:54:16.218Z,19.15
2022-11-06T13:59:34.315Z,21.17
2022-11-06T14:04:58.296Z,19.90
2022-11-06T14:09:57.521Z,18.58
2022-11-06T14:15:24.453Z,19.63
2022-11-06T14:20:32.802Z,18.38
2022-11-06T14:26:00.137Z,17.27
2022-11-06T14:31:21.448Z,25.15
2022-11-06T14:36:30.209Z,13.82
2022-11-06T14:41:54.710Z,18.48
2022-11-06T14:46:58.383Z,16.95
2022-11-06T14:52:02.966Z,19.33
2022-11-06T14:57:02.034Z,22.75
2022-11-06T15:02:13.372Z,17.85
2022-11-06T15:08:02.764Z,21.87
2022-11-06T15:13:12.779Z,22.95
2022-11-06T15:18:19.280Z,19.75
2022-11-06T15:23:23.680Z,18.60
2022-11-06T15:28:27.133Z,20.25
2022-11-06T15:33:32.353Z,21.58
2022-11-06T15:38:39.556Z,20.75
2022-11-06T15:43:38.765Z,17.10
2022-11-06T15:48:39.471Z,21.42
2022-11-06T15:53:41.442Z,26.63
2022-11-06T15:58:43.400Z,20.63
2022-11-06T16:08:48.306Z,23.27
2022-11-06T16:13:47.891Z,19.08
2022-11-06T16:18:49.509Z,21.05
2022-11-06T16:23:51.955Z,24.67
2022-11-06T16:33:58.323Z,21.70
2022-11-06T16:39:48.777Z,22.98
2022-11-06T16:44:50.047Z,25.65
2022-11-06T16:49:54.302Z,25.98
2022-11-06T16:54:56.406Z,23.70
2022-11-06T17:00:02.573Z,25.17
2022-11-06T17:05:12.081Z,21.48
2022-11-06T17:10:41.745Z,28.75
2022-11-06T17:15:40.779Z,21.00
2022-11-06T17:20:42.977Z,24.55
2022-11-06T17:25:42.009Z,17.30
2022-11-06T17:30:46.654Z,19.85
2022-11-06T17:35:59.624Z,19.20
2022-11-06T17:41:01.365Z,24.33
2022-11-06T17:46:10.254Z,17.38
2022-11-06T17:51:28.205Z,21.40
2022-11-06T17:56:37.788Z,19.80
2022-11-06T18:01:37.425Z,18.77
2022-11-06T18:06:53.543Z,18.77
2022-11-06T18:11:55.417Z,16.67
2022-11-06T18:16:54.858Z,21.50
2022-11-06T18:21:58.270Z,19.67
2022-11-06T18:26:58.850Z,17.90
2022-11-06T18:31:57.859Z,19.45
2022-11-06T18:36:58.000Z,17.75
2022-11-06T18:42:00.666Z,18.67
2022-11-06T18:46:59.691Z,25.73
2022-11-06T18:52:00.483Z,20.05
2022-11-06T18:56:59.263Z,15.95
2022-11-06T19:02:03.571Z,20.52
2022-11-06T19:07:07.192Z,20.40
2022-11-06T19:12:07.074Z,14.68
2022-11-06T19:17:06.174Z,18.23
2022-11-06T19:22:06.765Z,16.58
2022-11-06T19:27:09.399Z,14.60
2022-11-06T19:32:13.033Z,16.35
2022-11-06T19:37:14.966Z,16.25
2022-11-06T19:42:17.773Z,14.23
2022-11-06T19:47:17.388Z,14.25
2022-11-06T19:52:42.861Z,13.05
2022-11-06T19:58:09.384Z,15.45
2022-11-06T20:03:08.615Z,18.55
2022-11-06T20:08:09.304Z,14.80
2022-11-06T20:13:09.037Z,13.10
2022-11-06T20:18:07.814Z,14.40
2022-11-06T20:23:08.155Z,16.55
2022-11-06T20:28:07.095Z,17.20
2022-11-06T20:33:06.069Z,11.55
2022-11-06T20:38:05.138Z,13.80
2022-11-06T20:43:06.374Z,15.98
2022-11-06T20:48:05.877Z,10.93
2022-11-06T20:53:05.668Z,12.88
2022-11-06T20:58:12.974Z,10.77
2022-11-06T21:03:12.218Z,15.45
2022-11-06T21:08:11.368Z,12.23
2022-11-06T21:13:14.434Z,8.93
2022-11-06T21:18:13.605Z,13.90
2022-11-06T21:23:20.113Z,9.70
2022-11-06T21:28:30.135Z,13.80
2022-11-06T21:33:30.958Z,10.25
2022-11-06T21:38:29.956Z,12.05
2022-11-06T21:43:32.166Z,12.00
2022-11-06T21:48:50.116Z,16.40
2022-11-06T21:54:10.237Z,14.63
2022-11-06T21:59:12.885Z,11.40
2022-11-06T22:09:12.544Z,16.25
2022-11-06T22:14:16.377Z,9.70
2022-11-06T22:19:17.761Z,16.27
2022-11-06T22:24:17.262Z,12.15
2022-11-06T22:29:17.523Z,16.25
2022-11-06T22:34:16.353Z,11.10
2022-11-06T22:39:15.159Z,10.10
2022-11-06T22:44:13.932Z,11.05
2022-11-06T22:49:14.309Z,10.77
2022-11-06T22:54:13.670Z,15.98
2022-11-06T22:59:13.595Z,10.25
2022-11-06T23:04:16.313Z,10.43
2022-11-06T23:14:13.879Z,15.18
2022-11-06T23:19:17.130Z,10.07
2022-11-06T23:24:16.127Z,9.88
2022-11-06T23:29:14.892Z,8.90
2022-11-06T23:34:13.711Z,8.27
2022-11-06T23:39:13.934Z,12.05
2022-11-06T23:44:27.627Z,10.45
2022-11-06T23:49:26.879Z,8.65
2022-11-06T23:54:27.138Z,10.13
2022-11-06T23:59:25.996Z,10.63
